createdAt,value
2022-11-20T00:00:54.962Z,-0.72
2022-11-20T00:03:21.933Z,-0.81
2022-11-20T00:05:48.557Z,-0.60
2022-11-20T00:08:15.429Z,-0.45
2022-11-20T00:10:41.948Z,-0.37
2022-11-20T00:13:08.929Z,-0.45
2022-11-20T00:15:35.494Z,-0.55
2022-11-20T00:18:02.115Z,-0.50
2022-11-20T00:20:28.646Z,-0.32
2022-11-20T00:22:55.310Z,-0.26
2022-11-20T00:25:21.850Z,-0.37
2022-11-20T00:27:52.392Z,-0.59
2022-11-20T00:30:19.232Z,-0.44
2022-11-20T00:32:45.720Z,-0.54
2022-11-20T00:35:12.920Z,-0.67
2022-11-20T00:37:39.441Z,-0.66
2022-11-20T00:40:06.712Z,-0.77
2022-11-20T00:42:51.925Z,-0.93
2022-11-20T00:45:18.462Z,-1.23
2022-11-20T00:47:44.988Z,-1.10
2022-11-20T00:50:11.588Z,-1.07
2022-11-20T00:52:38.354Z,-0.74
2022-11-20T00:55:05.920Z,-0.69
2022-11-20T00:57:32.468Z,-0.77
2022-11-20T00:59:58.962Z,-0.87
2022-11-20T01:02:25.590Z,-0.89
2022-11-20T01:04:52.084Z,-1.02
2022-11-20T01:07:18.658Z,-1.33
2022-11-20T01:09:45.249Z,-1.24
2022-11-20T01:12:11.751Z,-1.00
2022-11-20T01:14:38.278Z,-0.73
2022-11-20T01:17:05.614Z,-0.66
2022-11-20T01:19:32.311Z,-0.64
2022-11-20T01:21:58.953Z,-0.91
2022-11-20T01:24:25.472Z,-1.03
2022-11-20T01:26:52.773Z,-0.76
2022-11-20T01:29:24.701Z,-0.77
2022-11-20T01:31:53.312Z,-0.82
2022-11-20T01:34:21.013Z,-1.47
2022-11-20T01:36:47.946Z,-1.61
2022-11-20T01:39:17.374Z,-1.35
2022-11-20T01:42:09.874Z,-1.79
2022-11-20T01:44:50.890Z,-1.31
2022-11-20T01:47:29.474Z,-1.06
2022-11-20T01:50:12.669Z,-0.89
2022-11-20T01:52:50.370Z,-1.14
2022-11-20T01:55:24.625Z,-1.42
2022-11-20T01:57:51.849Z,-1.32
2022-11-20T02:00:20.614Z,-0.95
2022-11-20T02:02:58.168Z,-0.57
2022-11-20T02:05:36.774Z,-0.32
2022-11-20T02:08:05.775Z,-0.33
2022-11-20T02:10:32.925Z,-0.19
2022-11-20T02:13:18.299Z,-0.03
2022-11-20T02:15:45.193Z,-0.01
2022-11-20T02:18:14.680Z,-0.16
2022-11-20T02:20:44.586Z,-0.45
2022-11-20T02:23:28.966Z,-0.99
2022-11-20T02:25:56.617Z,-0.63
2022-11-20T02:28:24.462Z,-0.64
2022-11-20T02:30:51.081Z,-0.80
2022-11-20T02:33:18.265Z,-0.91
2022-11-20T02:35:47.484Z,-1.28
2022-11-20T02:38:15.341Z,-1.43
2022-11-20T02:40:42.577Z,-1.22
2022-11-20T02:43:10.089Z,-1.13
2022-11-20T02:45:37.502Z,-1.12
2022-11-20T02:48:04.491Z,-1.07
2022-11-20T02:50:31.114Z,-0.72
2022-11-20T02:52:57.766Z,-0.45
2022-11-20T02:55:24.329Z,-0.66
2022-11-20T02:57:50.836Z,-0.65
2022-11-20T03:00:17.774Z,-0.59
2022-11-20T03:02:44.371Z,-1.09
2022-11-20T03:05:11.035Z,-1.03
2022-11-20T03:07:37.728Z,-0.99
2022-11-20T03:10:05.687Z,-1.16
2022-11-20T03:12:32.313Z,-0.89
2022-11-20T03:14:59.821Z,-0.89
2022-11-20T03:17:26.538Z,-1.17
2022-11-20T03:19:53.284Z,-1.26
2022-11-20T03:22:19.948Z,-1.23
2022-11-20T03:24:47.018Z,-0.88
2022-11-20T03:27:13.768Z,-0.73
2022-11-20T03:29:40.670Z,-0.76
2022-11-20T03:32:07.610Z,-0.85
2022-11-20T03:34:34.387Z,-1.14
2022-11-20T03:37:01.041Z,-0.76
2022-11-20T03:39:27.684Z,-0.40
2022-11-20T03:41:54.391Z,-0.24
2022-11-20T03:44:22.218Z,-0.83
2022-11-20T03:46:48.792Z,-1.00
2022-11-20T03:49:16.153Z,-0.79
2022-11-20T03:51:42.656Z,-0.78
2022-11-20T03:54:09.763Z,-0.81
2022-11-20T03:56:39.067Z,-0.89
2022-11-20T03:59:06.481Z,-1.00
2022-11-20T04:01:35.775Z,-1.00
2022-11-20T04:04:02.961Z,-1.41
2022-11-20T04:06:35.867Z,-1.70
2022-11-20T04:09:02.553Z,-1.35
2022-11-20T04:11:31.378Z,-1.21
2022-11-20T04:14:00.795Z,-1.09
2022-11-20T04:16:30.507Z,-1.03
2022-11-20T04:18:59.298Z,-0.93
2022-11-20T04:21:26.966Z,-1.02
2022-11-20T04:23:54.685Z,-0.94
2022-11-20T04:26:23.133Z,-1.08
2022-11-20T04:28:50.298Z,-1.14
2022-11-20T04:31:22.689Z,-0.86
2022-11-20T04:33:50.017Z,-0.88
2022-11-20T04:36:22.147Z,-0.76
2022-11-20T04:38:57.277Z,-0.75
2022-11-20T04:41:26.990Z,-0.70
2022-11-20T04:44:04.345Z,-0.80
2022-11-20T04:46:33.814Z,-1.08
2022-11-20T04:49:00.622Z,-1.05
2022-11-20T04:51:28.217Z,-0.70
2022-11-20T04:53:55.139Z,-0.41
2022-11-20T04:56:22.254Z,-0.30
2022-11-20T04:58:48.807Z,-0.36
2022-11-20T05:01:24.091Z,-0.77
2022-11-20T05:03:51.442Z,-0.99
2022-11-20T05:06:20.471Z,-0.58
2022-11-20T05:08:47.362Z,-0.39
2022-11-20T05:11:17.541Z,-0.49
2022-11-20T05:13:44.387Z,-0.61
2022-11-20T05:16:14.314Z,-0.77
2022-11-20T05:18:42.350Z,-0.64
2022-11-20T05:21:10.300Z,-0.52
2022-11-20T05:23:37.480Z,-0.35
2022-11-20T05:26:04.925Z,-0.25
2022-11-20T05:28:33.232Z,-0.18
2022-11-20T05:31:12.153Z,-0.21
2022-11-20T05:33:41.659Z,-0.02
2022-11-20T05:36:09.095Z,-0.00
2022-11-20T05:38:36.305Z,-0.40
2022-11-20T05:41:10.593Z,-0.28
2022-11-20T05:43:39.166Z,-0.31
2022-11-20T05:46:07.217Z,-0.29
2022-11-20T05:48:35.339Z,-0.16
2022-11-20T05:51:04.545Z,0.00
2022-11-20T05:53:31.421Z,0.11
2022-11-20T05:56:02.079Z,0.09
2022-11-20T05:58:29.092Z,-0.16
2022-11-20T06:01:03.653Z,0.02
2022-11-20T06:03:30.254Z,0.14
2022-11-20T06:05:56.761Z,0.18
2022-11-20T06:08:23.303Z,0.03
2022-11-20T06:10:49.830Z,0.13
2022-11-20T06:13:16.357Z,0.16
2022-11-20T06:15:42.884Z,0.03
2022-11-20T06:18:09.495Z,0.01
2022-11-20T06:20:41.856Z,-0.10
2022-11-20T06:23:08.747Z,-0.02
2022-11-20T06:25:41.929Z,-0.18
2022-11-20T06:28:08.496Z,-0.16
2022-11-20T06:30:35.698Z,-0.17
2022-11-20T06:33:03.146Z,-0.10
2022-11-20T06:35:29.725Z,-0.04
2022-11-20T06:37:57.254Z,-0.15
2022-11-20T06:40:23.857Z,-0.21
2022-11-20T06:42:50.398Z,-0.24
2022-11-20T06:45:17.238Z,-0.32
2022-11-20T06:47:43.941Z,-0.28
2022-11-20T06:50:10.819Z,-0.37
2022-11-20T06:52:43.391Z,-0.19
2022-11-20T06:55:10.266Z,-0.14
2022-11-20T06:57:36.965Z,-0.19
2022-11-20T07:00:04.121Z,-0.12
2022-11-20T07:02:31.694Z,-0.28
2022-11-20T07:04:58.226Z,-0.26
2022-11-20T07:07:24.805Z,-0.44
2022-11-20T07:09:51.377Z,-0.35
2022-11-20T07:12:17.877Z,-0.82
2022-11-20T07:14:44.417Z,-0.67
2022-11-20T07:17:11.202Z,-0.53
2022-11-20T07:19:37.803Z,-0.70
2022-11-20T07:22:04.662Z,-0.41
2022-11-20T07:24:31.282Z,-0.27
2022-11-20T07:26:57.870Z,-0.23
2022-11-20T07:29:24.999Z,-0.25
2022-11-20T07:31:51.794Z,-0.16
2022-11-20T07:34:18.531Z,0.01
2022-11-20T07:36:45.201Z,0.15
2022-11-20T07:39:11.802Z,-0.15
2022-11-20T07:41:38.717Z,-0.09
2022-11-20T07:44:05.573Z,0.09
2022-11-20T07:46:32.731Z,0.10
2022-11-20T07:48:59.312Z,0.13
2022-11-20T07:51:26.832Z,0.07
2022-11-20T07:53:54.055Z,0.08
2022-11-20T07:56:21.021Z,-0.05
2022-11-20T07:58:47.843Z,-0.03
2022-11-20T08:01:14.450Z,0.03
2022-11-20T08:03:41.458Z,0.10
2022-11-20T08:06:08.429Z,0.07
2022-11-20T08:08:38.916Z,0.17
2022-11-20T08:11:27.870Z,0.11
2022-11-20T08:14:12.557Z,-0.14
2022-11-20T08:16:49.529Z,-0.24
2022-11-20T08:19:18.795Z,-0.28
2022-11-20T08:21:45.711Z,-0.51
2022-11-20T08:24:12.622Z,-0.36
2022-11-20T08:26:40.918Z,-0.49
2022-11-20T08:29:08.215Z,-0.15
2022-11-20T08:31:34.912Z,0.22
2022-11-20T08:34:04.976Z,0.21
2022-11-20T08:36:35.874Z,0.12
2022-11-20T08:39:02.699Z,-0.19
2022-11-20T08:41:32.614Z,0.09
2022-11-20T08:44:07.863Z,0.33
2022-11-20T08:46:40.232Z,0.54
2022-11-20T08:49:11.948Z,0.73
2022-11-20T08:51:39.650Z,0.89
2022-11-20T08:54:06.687Z,1.01
2022-11-20T08:56:33.938Z,1.04
2022-11-20T09:01:47.513Z,1.02
2022-11-20T09:04:15.315Z,1.12
2022-11-20T09:06:41.965Z,1.27
2022-11-20T09:09:08.493Z,1.33
2022-11-20T09:11:36.717Z,1.42
2022-11-20T09:14:03.692Z,1.51
2022-11-20T09:16:30.841Z,1.62
2022-11-20T09:21:43.914Z,1.76
2022-11-20T09:24:10.579Z,1.34
2022-11-20T09:26:37.252Z,1.08
2022-11-20T09:29:04.059Z,0.93
2022-11-20T09:31:30.884Z,0.76
2022-11-20T09:33:58.365Z,1.02
2022-11-20T09:36:25.353Z,1.41
2022-11-20T09:38:52.005Z,1.65
2022-11-20T09:41:45.866Z,1.61
2022-11-20T09:44:59.278Z,1.83
2022-11-20T09:47:38.850Z,2.04
2022-11-20T09:50:08.478Z,1.93
2022-11-20T09:53:02.741Z,1.95
2022-11-20T09:55:31.630Z,2.06
2022-11-20T09:58:00.159Z,2.25
2022-11-20T10:00:28.873Z,2.44
2022-11-20T10:03:40.058Z,2.63
2022-11-20T10:06:13.534Z,2.80
2022-11-20T10:08:50.018Z,2.92
2022-11-20T10:11:30.005Z,2.86
2022-11-20T10:13:56.592Z,3.04
2022-11-20T10:16:29.283Z,3.12
2022-11-20T10:19:14.765Z,3.01
2022-11-20T10:22:16.682Z,3.08
2022-11-20T10:24:57.474Z,3.18
2022-11-20T10:27:42.414Z,3.38
2022-11-20T10:30:18.327Z,3.51
2022-11-20T10:32:52.057Z,3.55
2022-11-20T10:35:34.225Z,3.59
2022-11-20T10:38:04.557Z,3.54
2022-11-20T10:40:52.085Z,3.53
2022-11-20T10:43:22.446Z,3.55
2022-11-20T10:45:59.605Z,3.55
2022-11-20T10:48:28.459Z,3.63
2022-11-20T10:51:16.513Z,3.64
2022-11-20T10:53:59.108Z,3.62
2022-11-20T10:56:46.875Z,3.53
2022-11-20T10:59:46.897Z,3.74
2022-11-20T11:02:21.325Z,3.83
2022-11-20T11:04:51.569Z,3.86
2022-11-20T11:07:39.643Z,3.82
2022-11-20T11:10:18.894Z,3.85
2022-11-20T11:12:49.233Z,3.76
2022-11-20T11:15:30.695Z,3.72
2022-11-20T11:17:58.176Z,3.70
2022-11-20T11:20:26.790Z,3.79
2022-11-20T11:22:56.626Z,3.69
2022-11-20T11:25:56.877Z,3.92
2022-11-20T11:28:26.989Z,3.93
2022-11-20T11:30:53.721Z,3.98
2022-11-20T11:33:23.216Z,3.91
2022-11-20T11:35:53.390Z,3.93
2022-11-20T11:38:28.554Z,4.10
2022-11-20T11:40:57.314Z,4.14
2022-11-20T11:43:47.252Z,4.03
2022-11-20T11:46:33.168Z,4.02
2022-11-20T11:49:02.586Z,4.15
2022-11-20T11:51:50.800Z,4.14
2022-11-20T11:54:24.445Z,4.07
2022-11-20T11:56:52.574Z,4.11
2022-11-20T11:59:29.876Z,4.06
2022-11-20T12:02:04.910Z,4.33
2022-11-20T12:04:44.639Z,4.44
2022-11-20T12:10:35.805Z,4.63
2022-11-20T12:13:14.915Z,4.55
2022-11-20T12:15:46.890Z,4.61
2022-11-20T12:18:18.565Z,4.65
2022-11-20T12:21:10.343Z,4.59
2022-11-20T12:23:52.685Z,4.45
2022-11-20T12:26:45.526Z,4.49
2022-11-20T12:29:39.238Z,4.71
2022-11-20T12:32:27.214Z,4.57
2022-11-20T12:35:22.080Z,4.65
2022-11-20T12:38:13.093Z,4.50
2022-11-20T12:41:02.379Z,4.51
2022-11-20T12:43:58.843Z,4.39
2022-11-20T12:46:56.708Z,4.42
2022-11-20T12:50:08.510Z,4.50
2022-11-20T12:52:42.611Z,4.53
2022-11-20T12:55:14.762Z,4.55
2022-11-20T12:58:12.600Z,4.34
2022-11-20T13:00:48.842Z,4.31
2022-11-20T13:03:39.481Z,4.25
2022-11-20T13:06:10.600Z,4.38
2022-11-20T13:08:44.506Z,4.30
2022-11-20T13:11:35.070Z,4.31
2022-11-20T13:14:20.703Z,4.40
2022-11-20T13:17:05.722Z,4.35
2022-11-20T13:19:33.902Z,4.37
2022-11-20T13:22:00.857Z,4.51
2022-11-20T13:24:31.245Z,4.28
2022-11-20T13:27:08.263Z,4.25
2022-11-20T13:30:12.753Z,4.22
2022-11-20T13:32:49.411Z,4.37
2022-11-20T13:35:25.806Z,4.37
2022-11-20T13:38:12.222Z,4.19
2022-11-20T13:41:20.411Z,4.23
2022-11-20T13:43:48.480Z,4.23
2022-11-20T13:46:16.055Z,4.27
2022-11-20T13:48:47.502Z,4.30
2022-11-20T13:51:43.207Z,4.31
2022-11-20T13:54:44.741Z,4.33
2022-11-20T13:57:48.704Z,4.21
2022-11-20T14:00:20.678Z,4.13
2022-11-20T14:03:00.705Z,4.20
2022-11-20T14:05:27.837Z,4.15
2022-11-20T14:07:55.130Z,4.15
2022-11-20T14:10:31.415Z,4.12
2022-11-20T14:12:59.399Z,4.09
2022-11-20T14:15:29.007Z,4.12
2022-11-20T14:17:56.049Z,4.06
2022-11-20T14:20:27.527Z,4.02
2022-11-20T14:22:55.124Z,4.00
2022-11-20T14:25:24.327Z,4.04
2022-11-20T14:27:57.115Z,4.00
2022-11-20T14:30:26.996Z,4.01
2022-11-20T14:33:02.327Z,3.96
2022-11-20T14:35:34.819Z,3.93
2022-11-20T14:38:03.365Z,3.98
2022-11-20T14:40:38.293Z,3.89
2022-11-20T14:43:27.659Z,4.09
2022-11-20T14:46:00.344Z,4.00
2022-11-20T14:48:35.208Z,4.04
2022-11-20T14:51:01.832Z,4.02
2022-11-20T14:53:28.432Z,3.79
2022-11-20T14:55:59.112Z,3.74
2022-11-20T14:58:32.714Z,3.64
2022-11-20T15:01:03.341Z,3.72
2022-11-20T15:03:41.204Z,3.68
2022-11-20T15:06:11.305Z,3.76
2022-11-20T15:08:38.546Z,3.87
2022-11-20T15:11:19.032Z,3.84
2022-11-20T15:13:45.590Z,3.71
2022-11-20T15:16:20.320Z,3.82
2022-11-20T15:18:47.629Z,3.80
2022-11-20T15:21:19.264Z,3.74
2022-11-20T15:23:45.878Z,3.73
2022-11-20T15:26:19.589Z,3.74
2022-11-20T15:28:48.668Z,3.81
2022-11-20T15:31:17.748Z,3.90
2022-11-20T15:33:44.364Z,3.82
2022-11-20T15:36:11.086Z,3.88
2022-11-20T15:38:37.834Z,3.80
2022-11-20T15:41:05.612Z,3.64
2022-11-20T15:43:32.325Z,3.53
2022-11-20T15:46:18.029Z,3.47
2022-11-20T15:48:48.262Z,3.38
2022-11-20T15:51:28.826Z,3.33
2022-11-20T15:53:56.468Z,3.30
2022-11-20T15:56:23.349Z,3.25
2022-11-20T15:58:49.979Z,3.25
2022-11-20T16:01:19.832Z,3.24
2022-11-20T16:03:46.482Z,3.25
2022-11-20T16:06:13.049Z,3.22
2022-11-20T16:08:39.621Z,3.18
2022-11-20T16:11:06.099Z,3.17
2022-11-20T16:13:51.591Z,3.15
2022-11-20T16:16:31.322Z,3.26
2022-11-20T16:18:58.648Z,3.30
2022-11-20T16:21:31.589Z,3.31
2022-11-20T16:24:06.955Z,3.37
2022-11-20T16:26:34.401Z,3.27
2022-11-20T16:29:03.373Z,3.33
2022-11-20T16:31:30.426Z,3.26
2022-11-20T16:33:58.876Z,3.17
2022-11-20T16:36:28.437Z,3.22
2022-11-20T16:38:57.461Z,3.13
2022-11-20T16:41:26.687Z,3.13
2022-11-20T16:43:59.060Z,3.23
2022-11-20T16:46:28.243Z,3.21
2022-11-20T16:48:58.950Z,3.16
2022-11-20T16:51:26.659Z,3.11
2022-11-20T16:53:55.906Z,3.10
2022-11-20T16:56:27.068Z,3.11
2022-11-20T16:58:56.172Z,3.07
2022-11-20T17:01:24.675Z,3.12
2022-11-20T17:03:57.472Z,3.06
2022-11-20T17:06:27.293Z,3.18
2022-11-20T17:08:55.396Z,3.21
2022-11-20T17:11:22.885Z,3.27
2022-11-20T17:13:49.602Z,3.35
2022-11-20T17:16:21.657Z,3.29
2022-11-20T17:18:50.020Z,3.21
2022-11-20T17:21:19.009Z,3.19
2022-11-20T17:23:46.571Z,3.21
2022-11-20T17:26:21.893Z,3.21
2022-11-20T17:28:54.473Z,3.16
2022-11-20T17:31:21.430Z,3.12
2022-11-20T17:33:48.123Z,3.19
2022-11-20T17:36:17.135Z,3.25
2022-11-20T17:38:44.492Z,3.31
2022-11-20T17:41:23.639Z,3.10
2022-11-20T17:43:53.828Z,3.10
2022-11-20T17:46:23.149Z,3.11
2022-11-20T17:48:50.713Z,3.09
2022-11-20T17:51:23.060Z,3.07
2022-11-20T17:53:52.778Z,3.06
2022-11-20T17:56:38.677Z,3.10
2022-11-20T17:59:13.261Z,3.06
2022-11-20T18:01:42.970Z,3.07
2022-11-20T18:04:10.788Z,3.11
2022-11-20T18:06:37.587Z,3.17
2022-11-20T18:09:06.513Z,3.17
2022-11-20T18:11:35.549Z,3.16
2022-11-20T18:14:22.984Z,3.22
2022-11-20T18:16:55.861Z,3.26
2022-11-20T18:19:28.643Z,3.10
2022-11-20T18:21:59.841Z,3.20
2022-11-20T18:24:26.730Z,3.24
2022-11-20T18:26:53.424Z,3.27
2022-11-20T18:29:19.979Z,3.31
2022-11-20T18:31:46.564Z,3.30
2022-11-20T18:34:14.087Z,3.27
2022-11-20T18:36:42.397Z,3.31
2022-11-20T18:39:11.354Z,3.30
2022-11-20T18:41:57.558Z,3.28
2022-11-20T18:44:45.526Z,3.21
2022-11-20T18:47:15.717Z,3.20
2022-11-20T18:49:52.388Z,3.28
2022-11-20T18:52:22.061Z,3.33
2022-11-20T18:54:49.174Z,3.50
2022-11-20T18:57:19.905Z,3.48
2022-11-20T18:59:46.933Z,3.50
2022-11-20T19:02:18.316Z,3.47
2022-11-20T19:04:45.076Z,3.46
2022-11-20T19:07:12.111Z,3.55
2022-11-20T19:09:43.522Z,3.51
2022-11-20T19:12:12.583Z,3.53
2022-11-20T19:14:39.747Z,3.50
2022-11-20T19:17:07.155Z,3.52
2022-11-20T19:19:35.029Z,3.56
2022-11-20T19:22:01.740Z,3.57
2022-11-20T19:24:28.673Z,3.52
2022-11-20T19:26:56.056Z,3.55
2022-11-20T19:29:24.650Z,3.53
2022-11-20T19:31:51.611Z,3.61
2022-11-20T19:34:18.617Z,3.69
2022-11-20T19:36:45.742Z,3.66
2022-11-20T19:39:12.549Z,3.58
2022-11-20T19:41:58.254Z,3.62
2022-11-20T19:44:24.829Z,3.68
2022-11-20T19:46:51.375Z,3.71
2022-11-20T19:49:18.069Z,3.65
2022-11-20T19:51:48.966Z,3.63
2022-11-20T19:54:16.804Z,3.51
2022-11-20T19:56:45.221Z,3.40
2022-11-20T19:59:12.066Z,3.35
2022-11-20T20:01:39.668Z,3.45
2022-11-20T20:04:07.045Z,3.62
2022-11-20T20:06:35.923Z,3.68
2022-11-20T20:09:11.887Z,3.72
2022-11-20T20:11:39.957Z,3.79
2022-11-20T20:14:10.523Z,3.71
2022-11-20T20:16:37.134Z,3.67
2022-11-20T20:19:04.852Z,4.00
2022-11-20T20:21:33.801Z,3.90
2022-11-20T20:24:01.023Z,3.88
2022-11-20T20:26:29.818Z,3.93
2022-11-20T20:28:56.881Z,3.87
2022-11-20T20:31:26.344Z,3.76
2022-11-20T20:33:53.196Z,3.90
2022-11-20T20:36:21.240Z,3.98
2022-11-20T20:38:48.134Z,4.05
2022-11-20T20:41:18.415Z,4.12
2022-11-20T20:44:03.601Z,3.96
2022-11-20T20:46:30.457Z,3.72
2022-11-20T20:48:57.116Z,3.88
2022-11-20T20:51:23.838Z,4.03
2022-11-20T20:53:50.693Z,4.02
2022-11-20T20:56:18.560Z,4.10
2022-11-20T20:58:45.383Z,4.15
2022-11-20T21:01:14.831Z,4.10
2022-11-20T21:03:41.799Z,3.86
2022-11-20T21:06:10.006Z,3.71
2022-11-20T21:08:40.371Z,3.87
2022-11-20T21:11:10.322Z,3.97
2022-11-20T21:13:38.824Z,4.06
2022-11-20T21:16:06.121Z,4.06
2022-11-20T21:18:33.293Z,3.96
2022-11-20T21:21:19.213Z,3.77
2022-11-20T21:23:47.488Z,3.83
2022-11-20T21:26:15.933Z,3.69
2022-11-20T21:28:43.082Z,3.64
2022-11-20T21:31:12.839Z,3.75
2022-11-20T21:33:44.317Z,3.70
2022-11-20T21:36:14.124Z,3.57
2022-11-20T21:38:41.080Z,3.63
2022-11-20T21:41:09.769Z,3.72
2022-11-20T21:43:36.844Z,3.71
2022-11-20T21:46:04.709Z,3.80
2022-11-20T21:48:32.915Z,3.89
2022-11-20T21:51:06.791Z,3.88
2022-11-20T21:53:34.057Z,3.77
2022-11-20T21:56:00.741Z,3.68
2022-11-20T21:58:27.637Z,3.68
2022-11-20T22:00:54.179Z,3.84
2022-11-20T22:03:21.009Z,3.66
2022-11-20T22:05:57.503Z,3.63
2022-11-20T22:08:25.292Z,3.48
2022-11-20T22:10:59.745Z,3.53
2022-11-20T22:13:46.161Z,3.61
2022-11-20T22:16:13.791Z,3.42
2022-11-20T22:18:44.640Z,3.36
2022-11-20T22:21:12.607Z,3.34
2022-11-20T22:23:40.008Z,3.29
2022-11-20T22:26:08.805Z,3.46
2022-11-20T22:28:36.154Z,3.58
2022-11-20T22:31:05.569Z,3.57
2022-11-20T22:33:33.273Z,3.43
2022-11-20T22:36:11.050Z,3.24
2022-11-20T22:38:39.652Z,3.22
2022-11-20T22:41:16.574Z,3.17
2022-11-20T22:43:44.534Z,3.21
2022-11-20T22:46:15.182Z,3.25
2022-11-20T22:48:44.694Z,3.24
2022-11-20T22:51:13.836Z,3.20
2022-11-20T22:53:42.037Z,3.26
2022-11-20T22:56:10.292Z,3.31
2022-11-20T22:58:37.509Z,3.35
2022-11-20T23:01:08.404Z,3.28
2022-11-20T23:03:35.447Z,3.23
2022-11-20T23:06:02.291Z,3.26
2022-11-20T23:08:28.962Z,3.20
2022-11-20T23:11:07.042Z,3.24
2022-11-20T23:13:35.047Z,3.41
2022-11-20T23:16:07.392Z,3.29
2022-11-20T23:18:35.028Z,3.22
2022-11-20T23:21:10.006Z,3.32
2022-11-20T23:23:37.529Z,3.32
2022-11-20T23:26:14.413Z,3.38
2022-11-20T23:28:41.996Z,3.45
2022-11-20T23:31:09.718Z,3.44
2022-11-20T23:33:37.631Z,3.35
2022-11-20T23:36:05.733Z,3.39
2022-11-20T23:38:32.852Z,3.43
2022-11-20T23:40:59.459Z,3.46
2022-11-20T23:43:26.463Z,3.47
2022-11-20T23:45:55.497Z,3.42
2022-11-20T23:48:24.715Z,3.39
2022-11-20T23:50:51.298Z,3.36
2022-11-20T23:53:18.955Z,3.40
2022-11-20T23:55:48.030Z,3.38
2022-11-20T23:58:14.925Z,3.41
